Terreton, ID (83450)

5:43 AM MDT on April 21, 2018 (GMT -0600)
MTER | | Change Station
Active Advisory: Flood Warning

Elev 4788 ft 43.84 °N, 112.42 °W | Updated 10 minutes ago

Clear
Clear
31.0 °F
Feels Like 31 °F
N
2.0
Wind Variable Wind from SSE
Gusts 3.0 mph

Today
High -- | Low -- °F
--% Chance of Precip.
Yesterday
High -- | Low -- °F
Precip. -- in
Pressure 30.12 in
Visibility 10.0 miles
Clouds Clear
Windchill 31 °F
Dew Point 23 °F
Humidity 71%
Rainfall 0.00 in
Snow Depth Not available.
6:36 AM 8:20 PM
Waxing Crescent, 34% visible
METAR KIDA 211053Z AUTO 20005KT 10SM CLR 03/M02 A3016 RMK AO2 SLP198 T00331022
Pressure 30.12 in
Visibility 10.0 miles
Clouds Clear
Windchill 31 °F
Dew Point 23 °F
Humidity 71%
Rainfall 0.00 in
Snow Depth Not available.
6:36 AM 8:20 PM
Waxing Crescent, 34% visible
METAR KIDA 211053Z AUTO 20005KT 10SM CLR 03/M02 A3016 RMK AO2 SLP198 T00331022

Get Your Daily Forecast Email!

Thanks for signing up!

Be on the lookout for a verification email in your inbox.

You'll start receiving severe weather alerts in your inbox..

×

10-Day Weather Forecast

Almanac

Astronomy

Apr. 21, 2018 Rise Set
Actual Time
Civil Twilight
Nautical Twilight
Astronomical Twilight
Moon
Length of Visible Light
Length of Day
Tomorrow will be .
, % of the Moon is Illuminated

Today's Extremes

State Highs State Lows

Community

WunderPhotos

Category 6

Welcome to Category 6. This is the collective home for Weather Underground's featured writeups by Dr. Jeff Masters (right), Bob Henson (left), Chris Burt, and other regular contributors.

Nearby

Air Quality

  Air Quality AQ Index Pollutant
Not available.

Snow Depth

Station Depth Elevation

Earthquake Activity

City Distance Mag. Time & Date
Minimum magnitude displayed is 2.5.

Coastal Water Temperatures

Place Temperature

Stations

Nearby Weather Stations

Station Location Temp. Windchill Dew Point Humidity Wind Precip. Elev Updated Type
                   

Watches & Warnings

Flood Warning
Issued: 5:20 PM GMT Apr. 19, 2018 – National Weather Service

The Flood Warning continues for
the Snake River at Lorenzo.
* At 10:15 am Thursday the stage was 10.7 feet.
* Flood stage is 10.6 feet.
* Impact... at 10.6 feet... (or 16912 cfs) fields and low-lying areas
near the river between US Hwy 20 bridge near Lorenzo downstream to
the confluence of the Snake River and Henrys Fork may experience
seep and ponding. The Lorenzo boat launch may be closed due to high
flows.



                       Fld observed forecast 6 am
location stg stg day time Fri Sat sun

Snake River
Snake River at loren 10.6 10.7 Thu 10 am M M M




Lat... Lon 4372 11220 4383 11209 4377 11184 4368 11190
      4372 11202